Time;durP1;ratioP1;P1;durP2;ratioP2;P2;SDS_P1;SDS_P2;PMS_P1;PMS_P2;Temp;Humidity;BMP_temperature;BMP_pressure;BME280_temperature;BME280_humidity;BME280_pressure;Samples;Min_cycle;Max_cycle;Signal;HPM_P1;HPM_P2
2022/02/25 00:02:11;;;;;;;2.90;2.60;;;;;;;;;;5012946;28;20487;-44
2022/02/25 00:04:38;;;;;;;7.70;2.90;;;;;;;;;;5013712;28;20402;-43
2022/02/25 00:07:04;;;;;;;3.65;3.28;;;;;;;;;;5013713;28;20466;-45
2022/02/25 00:09:30;;;;;;;3.20;2.95;;;;;;;;;;5013340;28;20193;-44
2022/02/25 00:11:56;;;;;;;9.70;4.00;;;;;;;;;;5013216;28;20684;-45
2022/02/25 00:14:22;;;;;;;7.30;3.25;;;;;;;;;;5012658;28;20431;-46
2022/02/25 00:16:49;;;;;;;3.47;3.17;;;;;;;;;;5013204;28;20523;-44
2022/02/25 00:19:15;;;;;;;3.40;3.10;;;;;;;;;;5013068;28;20172;-44
2022/02/25 00:21:41;;;;;;;6.95;3.53;;;;;;;;;;5013111;28;20196;-44
2022/02/25 00:24:08;;;;;;;6.78;4.03;;;;;;;;;;5013176;28;20230;-44
2022/02/25 00:26:34;;;;;;;5.07;2.85;;;;;;;;;;5013449;28;20189;-44
2022/02/25 00:29:00;;;;;;;3.30;2.67;;;;;;;;;;5012904;28;20528;-44
2022/02/25 00:31:26;;;;;;;3.70;3.20;;;;;;;;;;5012970;28;20180;-43
2022/02/25 00:33:52;;;;;;;6.45;3.63;;;;;;;;;;5012887;28;20414;-44
2022/02/25 00:36:18;;;;;;;3.67;2.80;;;;;;;;;;5012996;28;20180;-45
2022/02/25 00:38:44;;;;;;;4.50;2.60;;;;;;;;;;5013250;28;20399;-44
2022/02/25 00:41:10;;;;;;;4.00;3.00;;;;;;;;;;5012568;28;20451;-44
2022/02/25 00:43:36;;;;;;;3.27;2.97;;;;;;;;;;5012622;28;20171;-44
2022/02/25 00:46:02;;;;;;;6.78;3.15;;;;;;;;;;5012696;28;20534;-44
2022/02/25 00:48:28;;;;;;;4.88;3.35;;;;;;;;;;5012603;28;20216;-44
2022/02/25 00:50:54;;;;;;;8.03;3.00;;;;;;;;;;5012722;28;20207;-44
2022/02/25 00:53:20;;;;;;;3.27;2.97;;;;;;;;;;5012575;28;20400;-44
2022/02/25 00:55:46;;;;;;;8.23;3.57;;;;;;;;;;5012598;28;20562;-44
2022/02/25 00:58:12;;;;;;;3.20;2.90;;;;;;;;;;5012274;28;20535;-46
2022/02/25 01:00:38;;;;;;;9.53;3.40;;;;;;;;;;5012882;28;20399;-44
2022/02/25 01:03:04;;;;;;;4.05;3.00;;;;;;;;;;5012484;28;20506;-45
2022/02/25 01:05:30;;;;;;;4.30;3.37;;;;;;;;;;5012455;28;20574;-44
2022/02/25 01:07:56;;;;;;;6.25;3.55;;;;;;;;;;5012352;28;20825;-44
2022/02/25 01:10:22;;;;;;;3.57;3.27;;;;;;;;;;5012546;28;20171;-44
2022/02/25 01:12:48;;;;;;;3.35;2.72;;;;;;;;;;5012143;28;20396;-44
2022/02/25 01:15:15;;;;;;;5.70;3.20;;;;;;;;;;5012717;28;20172;-45
2022/02/25 01:17:41;;;;;;;5.95;3.92;;;;;;;;;;5012129;28;20204;-45
2022/02/25 01:20:08;;;;;;;4.72;3.30;;;;;;;;;;5012123;28;20173;-45
2022/02/25 01:22:35;;;;;;;5.35;3.40;;;;;;;;;;5012209;28;20221;-44
2022/02/25 01:25:01;;;;;;;22.25;5.47;;;;;;;;;;5011789;28;20165;-44
2022/02/25 01:27:27;;;;;;;5.38;3.75;;;;;;;;;;5011942;28;20226;-45
2022/02/25 01:29:53;;;;;;;5.47;3.37;;;;;;;;;;5011731;28;20204;-45
2022/02/25 01:32:19;;;;;;;4.55;3.25;;;;;;;;;;5011751;28;20414;-44
2022/02/25 01:34:46;;;;;;;5.30;3.33;;;;;;;;;;5011982;28;20172;-45
2022/02/25 01:37:41;;;;;;;3.58;3.28;;;;;;;;;;5011812;28;20279;-44
2022/02/25 01:40:08;;;;;;;5.20;3.90;;;;;;;;;;5011600;28;20647;-44
2022/02/25 01:42:51;;;;;;;8.88;3.60;;;;;;;;;;5011773;28;20215;-44
2022/02/25 01:45:17;;;;;;;3.47;3.17;;;;;;;;;;5011772;28;20168;-44
2022/02/25 01:47:43;;;;;;;10.93;4.65;;;;;;;;;;5011780;28;20270;-44
2022/02/25 01:50:10;;;;;;;4.28;3.00;;;;;;;;;;5011370;28;20640;-44
2022/02/25 01:52:37;;;;;;;11.10;3.40;;;;;;;;;;5011805;28;20164;-44
2022/02/25 01:55:03;;;;;;;3.50;3.20;;;;;;;;;;5011750;28;20184;-44
2022/02/25 01:57:29;;;;;;;6.90;3.25;;;;;;;;;;5011386;28;20208;-44
2022/02/25 01:59:55;;;;;;;7.60;3.05;;;;;;;;;;5011710;28;20172;-44
2022/02/25 02:02:23;;;;;;;7.73;3.23;;;;;;;;;;5011558;28;20195;-45
2022/02/25 02:04:49;;;;;;;6.32;2.40;;;;;;;;;;5011311;28;20482;-45
2022/02/25 02:07:15;;;;;;;7.00;2.70;;;;;;;;;;5010983;28;20199;-44
2022/02/25 02:09:41;;;;;;;12.50;3.65;;;;;;;;;;5011134;28;20165;-44
2022/02/25 02:12:07;;;;;;;9.25;3.13;;;;;;;;;;5011487;28;20591;-44
2022/02/25 02:14:33;;;;;;;2.38;2.17;;;;;;;;;;5011551;28;20574;-45
2022/02/25 02:17:00;;;;;;;7.60;3.58;;;;;;;;;;5011416;28;20192;-45
2022/02/25 02:19:26;;;;;;;5.47;2.80;;;;;;;;;;5011384;28;20172;-45
2022/02/25 02:21:53;;;;;;;6.45;2.97;;;;;;;;;;5011475;28;20640;-44
2022/02/25 02:24:20;;;;;;;7.80;2.83;;;;;;;;;;5011283;28;20175;-44
2022/02/25 02:26:46;;;;;;;5.75;3.55;;;;;;;;;;5011176;28;20804;-44
2022/02/25 02:29:12;;;;;;;5.15;2.80;;;;;;;;;;5011250;28;20183;-44
2022/02/25 02:31:39;;;;;;;5.53;2.67;;;;;;;;;;5011047;28;20196;-45
2022/02/25 02:34:05;;;;;;;5.55;2.60;;;;;;;;;;5011540;28;20169;-45
2022/02/25 02:36:32;;;;;;;8.25;3.10;;;;;;;;;;5012925;28;20220;-44
2022/02/25 02:38:58;;;;;;;5.53;2.42;;;;;;;;;;5015114;28;20176;-45
2022/02/25 02:41:24;;;;;;;8.38;2.58;;;;;;;;;;5014999;28;20188;-45
2022/02/25 02:43:50;;;;;;;4.65;2.63;;;;;;;;;;5015055;28;20645;-44
2022/02/25 02:46:16;;;;;;;4.82;2.60;;;;;;;;;;5014856;28;20191;-45
2022/02/25 02:48:42;;;;;;;5.95;3.53;;;;;;;;;;5015214;28;20239;-44
2022/02/25 02:51:09;;;;;;;6.57;2.78;;;;;;;;;;5014723;28;20561;-44
2022/02/25 02:53:36;;;;;;;4.35;2.40;;;;;;;;;;5014794;28;20168;-45
2022/02/25 02:56:02;;;;;;;3.00;2.30;;;;;;;;;;5014747;28;20169;-45
2022/02/25 02:58:28;;;;;;;6.93;2.67;;;;;;;;;;5014993;28;20591;-45
2022/02/25 03:00:54;;;;;;;6.33;3.07;;;;;;;;;;5014477;28;20184;-44
2022/02/25 03:03:20;;;;;;;4.47;2.17;;;;;;;;;;5014607;28;20518;-45
2022/02/25 03:05:46;;;;;;;4.90;2.60;;;;;;;;;;5014873;28;20176;-44
2022/02/25 03:08:13;;;;;;;11.02;3.03;;;;;;;;;;5014525;28;20212;-44
2022/02/25 03:13:42;;;;;;;5.47;2.50;;;;;;;;;;5014696;28;20535;-45
2022/02/25 03:16:08;;;;;;;4.33;2.60;;;;;;;;;;5014445;28;20168;-44
2022/02/25 03:18:34;;;;;;;5.95;2.95;;;;;;;;;;5014865;28;20403;-44
2022/02/25 03:21:01;;;;;;;5.05;2.40;;;;;;;;;;5014178;28;20189;-44
2022/02/25 03:23:26;;;;;;;4.45;1.90;;;;;;;;;;5014287;28;20200;-44
2022/02/25 03:25:52;;;;;;;6.57;2.73;;;;;;;;;;5014332;28;20262;-45
2022/02/25 03:28:18;;;;;;;7.27;2.60;;;;;;;;;;5014317;28;20439;-44
2022/02/25 03:30:44;;;;;;;3.73;2.30;;;;;;;;;;5014232;28;20484;-44
2022/02/25 03:33:10;;;;;;;3.87;2.00;;;;;;;;;;5014268;28;20419;-44
2022/02/25 03:35:38;;;;;;;7.93;3.13;;;;;;;;;;5014183;28;20408;-45
2022/02/25 03:38:04;;;;;;;5.95;3.35;;;;;;;;;;5014126;28;20455;-44
2022/02/25 03:40:30;;;;;;;12.95;3.25;;;;;;;;;;5013847;28;20164;-44
2022/02/25 03:42:56;;;;;;;4.28;2.42;;;;;;;;;;5013859;28;20188;-44
2022/02/25 03:45:22;;;;;;;6.85;2.10;;;;;;;;;;5014035;28;20249;-44
2022/02/25 03:47:48;;;;;;;5.18;2.13;;;;;;;;;;5013526;28;20188;-45
2022/02/25 03:50:14;;;;;;;6.38;2.50;;;;;;;;;;5013745;28;20194;-44
2022/02/25 03:52:40;;;;;;;3.35;1.88;;;;;;;;;;5013753;28;20176;-44
2022/02/25 03:55:07;;;;;;;4.80;2.10;;;;;;;;;;5013589;28;20267;-44
2022/02/25 03:57:33;;;;;;;4.60;2.55;;;;;;;;;;5012743;28;20639;-44
2022/02/25 04:00:00;;;;;;;7.32;2.15;;;;;;;;;;5013158;28;20202;-45
2022/02/25 04:02:26;;;;;;;7.05;2.83;;;;;;;;;;5013434;28;20192;-44
2022/02/25 04:04:52;;;;;;;5.82;1.80;;;;;;;;;;5013746;28;20205;-44
2022/02/25 04:07:18;;;;;;;4.80;2.47;;;;;;;;;;5013491;28;20188;-44
2022/02/25 04:09:44;;;;;;;3.50;1.80;;;;;;;;;;5013265;28;20827;-45
2022/02/25 04:12:10;;;;;;;4.82;2.05;;;;;;;;;;5013327;28;20758;-45
2022/02/25 04:14:36;;;;;;;4.22;1.85;;;;;;;;;;5013392;28;20691;-44
2022/02/25 04:17:03;;;;;;;4.93;2.95;;;;;;;;;;5013226;28;20434;-44
2022/02/25 04:19:29;;;;;;;7.50;2.13;;;;;;;;;;5013136;28;20171;-45
2022/02/25 04:21:55;;;;;;;2.20;2.00;;;;;;;;;;5013100;28;20226;-45
2022/02/25 04:24:21;;;;;;;9.00;2.33;;;;;;;;;;5013182;28;20260;-44
2022/02/25 04:26:47;;;;;;;2.43;2.23;;;;;;;;;;5013096;28;20423;-44
2022/02/25 04:29:13;;;;;;;6.13;2.70;;;;;;;;;;5012951;28;20507;-44
2022/02/25 04:31:40;;;;;;;6.07;2.08;;;;;;;;;;5013174;28;20419;-44
2022/02/25 04:34:06;;;;;;;13.15;3.70;;;;;;;;;;5013327;28;20205;-44
2022/02/25 04:36:36;;;;;;;3.47;2.13;;;;;;;;;;5013071;28;20267;-44
2022/02/25 04:39:05;;;;;;;5.97;2.97;;;;;;;;;;5012871;28;20718;-44
2022/02/25 04:41:31;;;;;;;19.40;2.85;;;;;;;;;;5012897;28;20188;-44
2022/02/25 04:43:57;;;;;;;8.93;3.10;;;;;;;;;;5012775;28;20168;-44
2022/02/25 04:46:25;;;;;;;6.33;1.97;;;;;;;;;;5012700;28;20393;-44
2022/02/25 04:48:51;;;;;;;5.10;2.72;;;;;;;;;;5012562;28;20783;-45
2022/02/25 04:51:17;;;;;;;5.17;2.60;;;;;;;;;;5012714;28;20357;-45
2022/02/25 04:53:44;;;;;;;12.27;2.83;;;;;;;;;;5012566;28;20917;-44
2022/02/25 04:56:10;;;;;;;8.55;2.95;;;;;;;;;;5012370;28;20414;-45
2022/02/25 04:58:36;;;;;;;10.07;2.47;;;;;;;;;;5012304;28;20173;-44
2022/02/25 05:01:02;;;;;;;5.45;2.45;;;;;;;;;;5012377;28;20168;-44
2022/02/25 05:03:28;;;;;;;8.02;3.45;;;;;;;;;;5012369;28;20255;-45
2022/02/25 05:05:55;;;;;;;2.67;2.17;;;;;;;;;;5012656;28;20271;-45
2022/02/25 05:08:21;;;;;;;5.20;2.35;;;;;;;;;;5012332;28;20195;-44
2022/02/25 05:10:47;;;;;;;5.88;2.22;;;;;;;;;;5012124;28;20165;-44
2022/02/25 05:13:13;;;;;;;9.63;4.05;;;;;;;;;;5012165;28;20187;-44
2022/02/25 05:21:08;;;;;;;8.15;2.20;;;;;;;;;;5012010;28;20210;-44
2022/02/25 05:23:34;;;;;;;7.40;3.00;;;;;;;;;;5011930;28;20263;-45
2022/02/25 05:26:00;;;;;;;5.97;2.37;;;;;;;;;;5012129;28;20407;-44
2022/02/25 05:28:26;;;;;;;6.80;2.10;;;;;;;;;;5011996;28;20423;-44
2022/02/25 05:30:52;;;;;;;3.83;2.30;;;;;;;;;;5011972;28;20415;-45
2022/02/25 05:33:18;;;;;;;5.10;1.97;;;;;;;;;;5012018;28;20176;-44
2022/02/25 05:35:44;;;;;;;2.05;1.92;;;;;;;;;;5011912;28;20404;-44
2022/02/25 05:38:10;;;;;;;12.77;3.13;;;;;;;;;;5011807;28;20191;-44
2022/02/25 05:40:36;;;;;;;3.60;2.45;;;;;;;;;;5011998;28;20414;-44
2022/02/25 05:43:03;;;;;;;4.30;2.08;;;;;;;;;;5012133;28;20207;-44
2022/02/25 05:45:29;;;;;;;12.05;2.72;;;;;;;;;;5011936;28;20167;-44
2022/02/25 05:47:55;;;;;;;9.57;2.90;;;;;;;;;;5011782;28;20291;-45
2022/02/25 05:50:22;;;;;;;5.40;2.47;;;;;;;;;;5011556;28;20173;-44
2022/02/25 05:52:48;;;;;;;7.03;3.10;;;;;;;;;;5011836;28;20823;-44
2022/02/25 05:55:15;;;;;;;12.70;2.78;;;;;;;;;;5011614;28;20577;-44
2022/02/25 05:57:41;;;;;;;7.20;2.05;;;;;;;;;;5011406;28;20203;-46
2022/02/25 06:00:09;;;;;;;4.80;2.50;;;;;;;;;;5011341;28;20165;-45
2022/02/25 06:02:35;;;;;;;12.60;2.67;;;;;;;;;;5011312;28;20211;-45
2022/02/25 06:05:02;;;;;;;3.78;2.10;;;;;;;;;;5011423;28;20192;-44
2022/02/25 06:07:28;;;;;;;4.93;2.53;;;;;;;;;;5011248;28;20625;-44
2022/02/25 06:09:54;;;;;;;7.72;2.45;;;;;;;;;;5011052;28;20168;-45
2022/02/25 06:12:20;;;;;;;6.87;2.63;;;;;;;;;;5010646;28;20256;-44
2022/02/25 06:14:46;;;;;;;5.83;2.07;;;;;;;;;;5011768;28;20737;-44
2022/02/25 06:17:12;;;;;;;10.30;2.43;;;;;;;;;;5011225;28;20531;-45
2022/02/25 06:19:38;;;;;;;10.52;2.88;;;;;;;;;;5010922;28;20415;-45
2022/02/25 06:22:04;;;;;;;5.03;2.35;;;;;;;;;;5011075;28;20196;-45
2022/02/25 06:24:30;;;;;;;11.80;2.50;;;;;;;;;;5011542;28;20259;-44
2022/02/25 06:26:56;;;;;;;7.27;2.50;;;;;;;;;;5011280;28;20291;-44
2022/02/25 06:29:22;;;;;;;3.97;2.30;;;;;;;;;;5010968;28;20399;-44
2022/02/25 06:31:48;;;;;;;9.90;2.40;;;;;;;;;;5011124;28;20445;-44
2022/02/25 06:34:14;;;;;;;9.03;2.57;;;;;;;;;;5011108;28;20477;-45
2022/02/25 06:36:40;;;;;;;6.15;2.53;;;;;;;;;;5010984;28;20423;-44
2022/02/25 06:39:06;;;;;;;9.45;2.83;;;;;;;;;;5010937;28;20168;-45
2022/02/25 06:41:32;;;;;;;8.45;2.22;;;;;;;;;;5011101;28;20188;-44
2022/02/25 06:43:58;;;;;;;5.23;2.30;;;;;;;;;;5011440;28;20180;-45
2022/02/25 06:46:24;;;;;;;12.50;2.50;;;;;;;;;;5011273;28;20410;-44
2022/02/25 06:48:50;;;;;;;11.45;2.40;;;;;;;;;;5011062;28;20419;-45
2022/02/25 06:51:16;;;;;;;7.13;2.95;;;;;;;;;;5011016;28;20242;-45
2022/02/25 06:53:42;;;;;;;8.53;2.50;;;;;;;;;;5011266;28;20204;-44
2022/02/25 06:56:08;;;;;;;11.93;2.50;;;;;;;;;;5010760;28;20481;-44
2022/02/25 06:58:35;;;;;;;7.97;2.50;;;;;;;;;;5011009;28;20168;-44
2022/02/25 07:01:01;;;;;;;7.57;2.40;;;;;;;;;;5011304;28;20176;-45
2022/02/25 07:03:27;;;;;;;11.38;2.30;;;;;;;;;;5010779;28;20292;-44
2022/02/25 07:05:53;;;;;;;15.98;2.95;;;;;;;;;;5011043;28;20183;-44
2022/02/25 07:08:21;;;;;;;6.35;2.45;;;;;;;;;;5010977;28;20235;-44
2022/02/25 07:10:47;;;;;;;3.35;2.35;;;;;;;;;;5010989;28;20160;-45
2022/02/25 07:13:14;;;;;;;8.90;3.20;;;;;;;;;;5010754;28;20173;-45
2022/02/25 07:15:40;;;;;;;11.50;3.35;;;;;;;;;;5010796;28;20176;-44
2022/02/25 07:18:06;;;;;;;8.93;2.30;;;;;;;;;;5010536;28;20235;-44
2022/02/25 07:20:32;;;;;;;13.52;2.60;;;;;;;;;;5010575;28;20183;-44
2022/02/25 07:22:58;;;;;;;13.00;3.20;;;;;;;;;;5012859;28;20199;-45
2022/02/25 07:25:24;;;;;;;17.17;3.25;;;;;;;;;;5014372;28;20202;-45
2022/02/25 07:27:50;;;;;;;9.10;2.65;;;;;;;;;;5014234;28;20590;-44
2022/02/25 07:30:16;;;;;;;11.02;2.80;;;;;;;;;;5014394;28;20183;-45
2022/02/25 07:32:43;;;;;;;5.77;2.67;;;;;;;;;;5014060;28;20176;-44
2022/02/25 07:35:11;;;;;;;11.65;2.78;;;;;;;;;;5014223;28;20912;-45
2022/02/25 07:37:37;;;;;;;11.65;2.55;;;;;;;;;;5014321;28;20527;-44
2022/02/25 07:40:04;;;;;;;4.50;2.80;;;;;;;;;;5013995;28;20172;-45
2022/02/25 07:42:30;;;;;;;7.47;2.85;;;;;;;;;;5014031;28;20458;-45
2022/02/25 07:44:56;;;;;;;17.13;2.20;;;;;;;;;;5014261;28;20267;-44
2022/02/25 07:47:23;;;;;;;7.07;2.08;;;;;;;;;;5013861;28;20755;-44
2022/02/25 07:49:50;;;;;;;5.35;2.45;;;;;;;;;;5013795;28;20260;-45
2022/02/25 07:52:17;;;;;;;5.43;2.17;;;;;;;;;;5014591;28;20172;-44
2022/02/25 07:54:43;;;;;;;14.55;3.28;;;;;;;;;;5013638;28;20195;-45
2022/02/25 07:57:09;;;;;;;6.30;2.50;;;;;;;;;;5013818;28;20262;-45
2022/02/25 07:59:35;;;;;;;8.25;2.38;;;;;;;;;;5013505;28;20255;-44
2022/02/25 08:02:01;;;;;;;4.13;2.20;;;;;;;;;;5013433;28;20430;-44
2022/02/25 08:04:27;;;;;;;9.50;2.93;;;;;;;;;;5013627;28;20403;-45
2022/02/25 08:06:53;;;;;;;7.13;2.80;;;;;;;;;;5013527;28;20427;-45
2022/02/25 08:09:21;;;;;;;15.68;3.63;;;;;;;;;;5013275;28;20435;-45
2022/02/25 08:11:48;;;;;;;6.22;2.30;;;;;;;;;;5013462;28;20251;-44
2022/02/25 08:14:13;;;;;;;8.93;3.20;;;;;;;;;;5013327;28;20172;-45
2022/02/25 08:16:40;;;;;;;10.93;2.80;;;;;;;;;;5013128;28;20199;-44
2022/02/25 08:19:07;;;;;;;5.05;3.22;;;;;;;;;;5013046;28;20408;-45
2022/02/25 08:21:33;;;;;;;7.68;2.70;;;;;;;;;;5013181;28;20184;-45
2022/02/25 08:23:59;;;;;;;10.80;3.00;;;;;;;;;;5013172;28;20260;-45
2022/02/25 08:26:25;;;;;;;7.53;2.77;;;;;;;;;;5013832;28;20259;-44
2022/02/25 08:28:55;;;;;;;13.60;2.55;;;;;;;;;;5012901;28;20407;-44
2022/02/25 08:31:22;;;;;;;16.27;3.40;;;;;;;;;;5013059;28;20562;-45
2022/02/25 08:33:48;;;;;;;11.23;3.38;;;;;;;;;;5011557;28;20264;-44
2022/02/25 08:36:14;;;;;;;12.13;5.07;;;;;;;;;;5013195;28;20172;-45
2022/02/25 08:38:40;;;;;;;11.00;3.45;;;;;;;;;;5012942;28;20244;-45
2022/02/25 08:41:06;;;;;;;5.90;3.03;;;;;;;;;;5012804;28;20592;-44
2022/02/25 08:43:32;;;;;;;9.57;3.03;;;;;;;;;;5013007;28;20403;-44
2022/02/25 08:45:58;;;;;;;7.72;4.40;;;;;;;;;;5012847;28;20553;-44
2022/02/25 08:48:25;;;;;;;6.95;2.65;;;;;;;;;;5012827;28;20263;-44
2022/02/25 08:50:51;;;;;;;10.63;3.85;;;;;;;;;;5012607;28;20172;-44
2022/02/25 08:53:17;;;;;;;15.02;4.00;;;;;;;;;;5012818;28;20176;-44
2022/02/25 08:55:43;;;;;;;10.75;3.40;;;;;;;;;;5012436;28;20179;-45
2022/02/25 08:58:10;;;;;;;7.95;3.10;;;;;;;;;;5012441;28;20206;-45
2022/02/25 09:00:36;;;;;;;10.60;4.38;;;;;;;;;;5012359;28;20165;-44
2022/02/25 09:03:02;;;;;;;5.97;3.20;;;;;;;;;;5012643;28;20196;-44
2022/02/25 09:05:28;;;;;;;7.43;3.10;;;;;;;;;;5012450;28;21106;-44
2022/02/25 09:07:54;;;;;;;7.43;2.80;;;;;;;;;;5012547;28;20621;-45
2022/02/25 09:10:21;;;;;;;12.90;4.22;;;;;;;;;;5012134;28;20168;-44
2022/02/25 09:12:47;;;;;;;10.20;4.85;;;;;;;;;;5012182;28;20168;-44
2022/02/25 09:15:14;;;;;;;11.52;4.03;;;;;;;;;;5012271;28;20178;-44
2022/02/25 09:17:40;;;;;;;11.18;4.82;;;;;;;;;;5012164;28;20196;-44
2022/02/25 09:20:09;;;;;;;10.67;3.63;;;;;;;;;;5011935;28;20170;-44
2022/02/25 09:22:35;;;;;;;10.82;4.57;;;;;;;;;;5012009;28;20471;-44
2022/02/25 09:25:01;;;;;;;6.57;3.60;;;;;;;;;;5011906;28;20196;-44
2022/02/25 09:27:28;;;;;;;8.55;2.90;;;;;;;;;;5012014;28;20192;-45
2022/02/25 09:29:55;;;;;;;12.43;4.05;;;;;;;;;;5011556;28;20161;-44
2022/02/25 09:32:21;;;;;;;16.17;3.88;;;;;;;;;;5011963;28;20180;-45
2022/02/25 09:34:47;;;;;;;9.88;2.88;;;;;;;;;;5012420;28;20177;-45
2022/02/25 09:37:13;;;;;;;8.63;4.00;;;;;;;;;;5011754;28;20218;-44
2022/02/25 09:39:39;;;;;;;9.40;3.28;;;;;;;;;;5011857;28;20205;-45
2022/02/25 09:42:07;;;;;;;8.57;3.00;;;;;;;;;;5012042;28;20203;-45
2022/02/25 09:44:34;;;;;;;12.18;3.33;;;;;;;;;;5011338;28;20157;-45
2022/02/25 09:47:00;;;;;;;12.80;3.90;;;;;;;;;;5011764;28;20177;-45
2022/02/25 09:49:26;;;;;;;8.87;3.23;;;;;;;;;;5011444;28;20408;-45
2022/02/25 09:51:53;;;;;;;15.80;3.10;;;;;;;;;;5011651;28;20410;-45
2022/02/25 09:54:19;;;;;;;6.53;3.10;;;;;;;;;;5011832;28;20418;-45
2022/02/25 09:56:49;;;;;;;19.27;3.27;;;;;;;;;;5011433;28;20448;-45
2022/02/25 09:59:16;;;;;;;9.30;3.70;;;;;;;;;;5011370;28;20420;-45
2022/02/25 10:01:42;;;;;;;12.43;3.40;;;;;;;;;;5011372;28;20456;-45
2022/02/25 10:04:12;;;;;;;9.60;3.17;;;;;;;;;;5011314;28;20412;-45
2022/02/25 10:06:38;;;;;;;8.27;3.93;;;;;;;;;;5011252;28;20920;-45
2022/02/25 10:09:11;;;;;;;6.97;3.40;;;;;;;;;;5011280;28;20435;-45
2022/02/25 10:11:56;;;;;;;11.37;3.60;;;;;;;;;;5011388;28;20408;-45
2022/02/25 10:14:29;;;;;;;11.50;3.10;;;;;;;;;;5011066;28;20403;-45
2022/02/25 10:17:07;;;;;;;10.00;3.97;;;;;;;;;;5011523;28;20435;-45
2022/02/25 10:19:33;;;;;;;7.05;3.63;;;;;;;;;;5010948;28;20486;-45
2022/02/25 10:22:15;;;;;;;13.60;4.10;;;;;;;;;;5011044;28;20287;-45
2022/02/25 10:24:53;;;;;;;11.65;3.70;;;;;;;;;;5011122;28;20962;-45
2022/02/25 10:27:20;;;;;;;20.63;4.33;;;;;;;;;;5010873;28;20219;-45
2022/02/25 10:30:15;;;;;;;11.68;4.07;;;;;;;;;;5010999;28;20395;-45
2022/02/25 10:32:42;;;;;;;8.88;3.95;;;;;;;;;;4998490;28;20247;-45
2022/02/25 10:35:24;;;;;;;10.85;4.15;;;;;;;;;;5011109;28;20177;-47
2022/02/25 10:38:09;;;;;;;9.50;3.85;;;;;;;;;;5010995;28;20188;-45
2022/02/25 10:40:35;;;;;;;24.17;5.20;;;;;;;;;;5009680;28;20176;-45
2022/02/25 10:43:01;;;;;;;21.83;5.70;;;;;;;;;;5011226;28;20466;-45
2022/02/25 10:45:27;;;;;;;9.48;4.70;;;;;;;;;;5011183;28;20403;-45
2022/02/25 10:47:57;;;;;;;12.10;5.00;;;;;;;;;;5011038;28;20727;-45
2022/02/25 10:50:25;;;;;;;15.52;5.32;;;;;;;;;;5011021;28;20410;-46
2022/02/25 10:52:53;;;;;;;10.18;5.03;;;;;;;;;;5011188;28;20192;-45
2022/02/25 10:55:20;;;;;;;14.63;6.00;;;;;;;;;;5011100;28;20644;-45
2022/02/25 10:57:46;;;;;;;9.40;4.57;;;;;;;;;;5011492;28;20282;-45
2022/02/25 11:00:13;;;;;;;19.80;4.67;;;;;;;;;;5014740;28;20402;-45
2022/02/25 11:02:41;;;;;;;16.33;4.53;;;;;;;;;;5014463;28;20584;-46
2022/02/25 11:05:07;;;;;;;10.03;4.20;;;;;;;;;;5014780;28;20412;-45
2022/02/25 11:07:34;;;;;;;12.37;4.50;;;;;;;;;;5014728;28;20807;-45
2022/02/25 11:10:01;;;;;;;13.00;4.40;;;;;;;;;;5014627;28;20404;-45
2022/02/25 11:12:30;;;;;;;19.03;5.70;;;;;;;;;;5014724;28;20906;-45
2022/02/25 11:14:57;;;;;;;9.10;5.07;;;;;;;;;;5014677;28;20427;-45
2022/02/25 11:17:23;;;;;;;21.50;4.90;;;;;;;;;;5014254;28;20436;-45
2022/02/25 11:19:50;;;;;;;13.43;5.13;;;;;;;;;;5013989;28;20446;-45
2022/02/25 11:22:18;;;;;;;8.00;4.27;;;;;;;;;;5014267;28;20504;-45
2022/02/25 11:24:46;;;;;;;8.03;3.90;;;;;;;;;;5014427;28;20435;-45
2022/02/25 11:27:12;;;;;;;10.40;4.03;;;;;;;;;;5014493;28;20480;-45
2022/02/25 11:29:58;;;;;;;15.37;4.20;;;;;;;;;;5013971;28;20406;-45
2022/02/25 11:32:29;;;;;;;15.50;4.33;;;;;;;;;;5000986;28;20422;-45
2022/02/25 11:34:55;;;;;;;8.13;4.60;;;;;;;;;;5014374;28;20407;-45
2022/02/25 11:37:39;;;;;;;22.33;5.57;;;;;;;;;;5014112;28;20482;-46
2022/02/25 11:40:06;;;;;;;7.43;3.90;;;;;;;;;;5013769;28;20479;-45
2022/02/25 11:42:31;;;;;;;12.87;5.13;;;;;;;;;;5014034;28;20852;-45
2022/02/25 11:45:16;;;;;;;11.47;4.90;;;;;;;;;;5014370;28;20396;-45
2022/02/25 11:47:48;;;;;;;9.50;5.10;;;;;;;;;;5014266;28;20513;-45
2022/02/25 11:50:33;;;;;;;15.87;5.03;;;;;;;;;;5014056;28;20400;-45
2022/02/25 11:53:16;;;;;;;9.80;4.60;;;;;;;;;;5014068;28;20436;-45
2022/02/25 11:55:42;;;;;;;12.35;5.18;;;;;;;;;;5013920;28;20892;-45
2022/02/25 11:58:28;;;;;;;7.40;5.30;;;;;;;;;;5013589;28;20218;-45
2022/02/25 12:01:04;;;;;;;14.25;4.25;;;;;;;;;;5012995;28;20451;-45
2022/02/25 12:03:33;;;;;;;17.58;5.20;;;;;;;;;;5013477;28;20186;-45
2022/02/25 12:05:59;;;;;;;9.75;5.35;;;;;;;;;;5013527;28;20175;-45
2022/02/25 12:08:25;;;;;;;17.07;5.57;;;;;;;;;;5013505;28;20189;-45
2022/02/25 12:10:52;;;;;;;10.45;4.07;;;;;;;;;;5013153;28;20484;-46
2022/02/25 12:13:23;;;;;;;12.90;4.78;;;;;;;;;;5013215;28;20554;-45
2022/02/25 12:15:49;;;;;;;15.07;4.78;;;;;;;;;;5013746;28;20711;-45
2022/02/25 12:18:16;;;;;;;9.80;4.23;;;;;;;;;;5013435;28;20671;-46
2022/02/25 12:20:52;;;;;;;9.70;4.80;;;;;;;;;;5013132;28;20406;-46
2022/02/25 12:23:21;;;;;;;8.00;3.67;;;;;;;;;;5013090;28;21017;-46
2022/02/25 12:25:47;;;;;;;9.10;4.40;;;;;;;;;;5013082;28;20438;-46
2022/02/25 12:28:28;;;;;;;8.80;4.63;;;;;;;;;;5012965;28;20424;-46
2022/02/25 12:31:26;;;;;;;13.33;4.40;;;;;;;;;;5012931;28;20407;-46
2022/02/25 12:33:53;;;;;;;11.00;4.60;;;;;;;;;;4980066;28;20419;-46
2022/02/25 12:36:28;;;;;;;10.30;5.10;;;;;;;;;;5012686;28;20399;-46
2022/02/25 12:39:01;;;;;;;10.73;5.00;;;;;;;;;;5012733;28;20407;-46
2022/02/25 12:41:32;;;;;;;12.80;5.03;;;;;;;;;;5013074;28;20469;-46
2022/02/25 12:44:01;;;;;;;9.00;5.00;;;;;;;;;;5012907;28;20409;-45
2022/02/25 12:46:31;;;;;;;19.90;5.30;;;;;;;;;;5012877;28;20405;-45
2022/02/25 12:48:57;;;;;;;13.17;4.77;;;;;;;;;;5012504;28;20394;-45
2022/02/25 12:51:24;;;;;;;13.80;4.67;;;;;;;;;;5012981;28;20395;-45
2022/02/25 12:54:00;;;;;;;18.93;5.60;;;;;;;;;;5013109;28;20741;-45
2022/02/25 12:56:26;;;;;;;16.00;6.10;;;;;;;;;;5012493;28;20420;-45
2022/02/25 12:58:53;;;;;;;13.43;5.00;;;;;;;;;;5012567;28;20405;-45
2022/02/25 13:01:19;;;;;;;6.80;4.50;;;;;;;;;;5013055;28;20900;-45
2022/02/25 13:03:45;;;;;;;7.73;3.57;;;;;;;;;;5013039;28;20416;-45
2022/02/25 13:06:11;;;;;;;5.13;2.50;;;;;;;;;;5012720;28;20459;-45
2022/02/25 13:08:40;;;;;;;9.03;2.40;;;;;;;;;;5012505;28;20409;-45
2022/02/25 13:11:06;;;;;;;13.30;2.87;;;;;;;;;;5012314;28;20427;-46
2022/02/25 13:13:32;;;;;;;5.77;1.90;;;;;;;;;;5012406;28;20939;-45
2022/02/25 13:16:02;;;;;;;5.37;1.83;;;;;;;;;;5012016;28;20608;-45
2022/02/25 13:18:28;;;;;;;2.70;1.60;;;;;;;;;;5012169;28;20419;-46
2022/02/25 13:21:01;;;;;;;7.10;1.90;;;;;;;;;;5011325;28;20414;-46
2022/02/25 13:23:27;;;;;;;4.20;1.43;;;;;;;;;;5010749;28;20463;-45
2022/02/25 13:26:00;;;;;;;2.97;1.53;;;;;;;;;;5012177;28;20403;-46
2022/02/25 13:28:26;;;;;;;3.73;1.27;;;;;;;;;;5012332;28;20415;-46
2022/02/25 13:30:53;;;;;;;4.70;1.83;;;;;;;;;;5011911;28;20456;-45
2022/02/25 13:33:19;;;;;;;3.50;1.50;;;;;;;;;;5012207;28;20424;-45
2022/02/25 13:35:55;;;;;;;3.63;1.50;;;;;;;;;;5012241;28;20440;-45
2022/02/25 13:38:22;;;;;;;2.97;1.33;;;;;;;;;;5012048;28;20430;-46
2022/02/25 13:40:50;;;;;;;6.43;1.80;;;;;;;;;;5011704;28;20414;-46
2022/02/25 13:43:27;;;;;;;5.17;2.00;;;;;;;;;;5012025;28;20458;-46
2022/02/25 13:45:55;;;;;;;2.30;1.40;;;;;;;;;;5011892;28;20770;-46
2022/02/25 13:54:00;;;;;;;4.03;1.50;;;;;;;;;;5011824;28;20455;-47
2022/02/25 13:56:27;;;;;;;3.13;1.67;;;;;;;;;;5011379;28;20432;-47
2022/02/25 13:58:56;;;;;;;5.73;1.90;;;;;;;;;;5011315;28;20775;-46
2022/02/25 14:01:22;;;;;;;5.63;1.90;;;;;;;;;;5011250;28;20791;-46
2022/02/25 14:03:48;;;;;;;5.70;2.10;;;;;;;;;;5011441;28;20469;-46
2022/02/25 14:06:43;;;;;;;6.03;1.90;;;;;;;;;;5011193;28;20860;-46
2022/02/25 14:09:16;;;;;;;7.03;2.23;;;;;;;;;;4994174;28;20922;-46
2022/02/25 14:11:42;;;;;;;6.50;2.13;;;;;;;;;;5011132;28;20778;-46
2022/02/25 14:14:09;;;;;;;5.50;1.80;;;;;;;;;;5011136;28;20404;-46
2022/02/25 14:16:43;;;;;;;8.27;2.07;;;;;;;;;;5011344;28;20495;-46
2022/02/25 14:19:19;;;;;;;5.80;2.83;;;;;;;;;;5011093;28;20406;-46
2022/02/25 14:21:45;;;;;;;5.70;2.57;;;;;;;;;;5011074;28;20417;-46
2022/02/25 14:24:27;;;;;;;5.10;1.67;;;;;;;;;;5011204;28;20404;-46
2022/02/25 14:27:10;;;;;;;4.30;2.10;;;;;;;;;;5011178;28;21013;-46
2022/02/25 14:29:37;;;;;;;4.83;2.00;;;;;;;;;;5010919;28;20409;-46
2022/02/25 14:32:16;;;;;;;5.40;2.10;;;;;;;;;;5010217;28;20877;-46
2022/02/25 14:34:45;;;;;;;5.57;1.70;;;;;;;;;;5010454;28;20398;-46
2022/02/25 14:37:22;;;;;;;7.83;2.43;;;;;;;;;;5011213;28;20945;-45
2022/02/25 14:39:48;;;;;;;3.20;1.97;;;;;;;;;;5009726;28;20396;-45
2022/02/25 14:42:14;;;;;;;8.93;2.63;;;;;;;;;;5011291;28;20458;-45
2022/02/25 14:44:40;;;;;;;8.00;2.70;;;;;;;;;;5011482;28;20476;-45
2022/02/25 14:47:06;;;;;;;8.70;2.50;;;;;;;;;;5010978;28;20512;-44
2022/02/25 14:49:32;;;;;;;7.50;2.83;;;;;;;;;;5010786;28;20437;-45
2022/02/25 14:51:58;;;;;;;9.90;3.13;;;;;;;;;;5010858;28;20831;-45
2022/02/25 14:54:24;;;;;;;15.90;3.00;;;;;;;;;;5011142;28;20483;-45
2022/02/25 14:56:50;;;;;;;6.13;2.27;;;;;;;;;;5010910;28;20454;-45